Terminal Aerodrome Forecast
Issued by NWS Cleveland, OH

Home | Current Version | Previous Version | Text Only | Print | Product List | Glossary On
Versions: 1 2 3 4 5 6 7 8 9 10 11 12 13 14 15 16 17 18 19 20 21 22
000
FTUS41 KCLE 270100 AAB
TAFYNG
TAF AMD
KYNG 270157Z 2702/2724 28006KT 6SM BR SCT008 OVC015
      TEMPO 2702/2704 BKN005
     FM270400 30007KT P6SM BKN015 OVC022
     FM271000 31010KT P6SM BKN018
     FM271700 31010KT P6SM OVC025=

USA.gov is the U.S. government's official web portal to all federal, state and local government web resources and services.